Time;durP1;ratioP1;P1;durP2;ratioP2;P2;SDS_P1;SDS_P2;PMS_P1;PMS_P2;Temp;Humidity;BMP_temperature;BMP_pressure;BME280_temperature;BME280_humidity;BME280_pressure;Samples;Min_cycle;Max_cycle;Signal;HPM_P1;HPM_P2
2021/01/27 00:11:54;;;;;;;;;;;;;;;;;;;;;
2021/01/27 00:21:28;;;;;;;;;;;;;;;;;;;;;
2021/01/27 00:46:20;;;;;;;8.38;5.75;;;;;;;2.85;74.74;100313.34;5248262;27;20187;-83
2021/01/27 00:52:46;;;;;;;;;;;;;;;;;;;;;
2021/01/27 00:59:17;;;;;;;;;;;;;;;;;;;;;
2021/01/27 01:09:27;;;;;;;8.80;5.72;;;;;;;3.08;74.26;100344.16;5318995;26;20075;-84
2021/01/27 01:21:47;;;;;;;;;;;;;;;;;;;;;
2021/01/27 01:33:42;;;;;;;7.55;4.78;;;;;;;3.04;74.12;100324.19;5109600;27;20195;-83
2021/01/27 01:43:09;;;;;;;8.23;5.90;;;;;;;2.41;76.59;100335.56;5104343;28;20089;-81
2021/01/27 01:52:07;;;;;;;9.48;5.62;;;;;;;2.67;75.38;100342.31;5159395;27;20476;-83
2021/01/27 02:03:52;;;;;;;10.18;6.97;;;;;;;2.72;75.55;100334.66;5269296;27;20135;-82
2021/01/27 02:06:45;;;;;;;;;;;;;;;;;;;;;
2021/01/27 02:13:05;;;;;;;9.05;6.22;;;;;;;2.52;75.59;100334.12;5276300;27;20475;-81
2021/01/27 02:32:19;;;;;;;8.30;5.90;;;;;;;1.93;75.83;100315.28;5321389;27;20675;-82
2021/01/27 02:39:23;;;;;;;;;;;;;;;;;;;;;
2021/01/27 02:42:45;;;;;;;;;;;;;;;;;;;;;
2021/01/27 02:49:15;;;;;;;9.63;7.03;;;;;;;1.59;76.27;100323.00;5330511;26;20064;-83
2021/01/27 02:52:36;;;;;;;8.45;6.05;;;;;;;2.21;74.62;100316.94;5263822;27;20108;-83
2021/01/27 03:06:54;;;;;;;10.63;7.18;;;;;;;2.24;73.33;100324.78;5205321;27;20096;-81
2021/01/27 03:13:37;;;;;;;11.07;6.93;;;;;;;2.02;73.68;100329.38;5105068;27;21070;-81
2021/01/27 03:20:23;;;;;;;13.27;7.18;;;;;;;1.97;73.75;100330.97;5159017;27;20135;-85
2021/01/27 03:48:37;;;;;;;11.90;8.15;;;;;;;1.62;74.54;100342.03;5276312;27;20071;-83
2021/01/27 03:51:05;;;;;;;12.40;7.43;;;;;;;1.71;74.22;100347.50;5276522;27;20076;-82
2021/01/27 03:53:33;;;;;;;13.00;8.05;;;;;;;1.93;73.26;100342.06;5276552;27;20120;-81
2021/01/27 03:56:24;;;;;;;12.80;8.57;;;;;;;1.69;73.56;100344.84;5276582;27;20101;-82
2021/01/27 03:58:50;;;;;;;12.50;7.70;;;;;;;2.21;72.42;100340.25;5276663;27;20103;-83
2021/01/27 04:01:20;;;;;;;10.63;7.40;;;;;;;2.21;72.32;100350.62;5276480;27;20052;-81
2021/01/27 04:03:51;;;;;;;10.60;7.20;;;;;;;1.71;73.58;100350.97;5276589;27;20057;-82
2021/01/27 04:06:18;;;;;;;10.70;7.25;;;;;;;1.84;73.51;100343.53;5275052;27;20065;-81
2021/01/27 04:08:44;;;;;;;10.93;7.25;;;;;;;1.89;73.36;100327.28;5274979;27;20382;-83
2021/01/27 04:11:11;;;;;;;14.77;9.30;;;;;;;1.57;74.46;100335.00;5276291;27;20368;-82
2021/01/27 04:13:38;;;;;;;13.70;9.68;;;;;;;1.56;74.65;100338.44;5276260;27;20078;-82
2021/01/27 04:16:04;;;;;;;15.15;8.68;;;;;;;1.88;73.00;100341.06;5274575;27;20061;-81
2021/01/27 04:18:31;;;;;;;12.27;8.88;;;;;;;2.56;70.51;100337.69;5276551;27;20631;-82
2021/01/27 04:20:58;;;;;;;13.20;9.20;;;;;;;1.97;72.53;100343.94;5276321;27;20103;-82
2021/01/27 04:23:24;;;;;;;13.90;9.70;;;;;;;2.38;71.08;100353.66;5274699;27;20106;-81
2021/01/27 05:18:42;;;;;;;;;;;;;;;;;;;;;
2021/01/27 05:26:42;;;;;;;;;;;;;;;;;;;;;
2021/01/27 05:39:23;;;;;;;;;;;;;;;;;;;;;
2021/01/27 05:45:26;;;;;;;13.02;8.40;;;;;;;3.32;62.63;100365.50;5166055;27;20118;-83
2021/01/27 05:47:53;;;;;;;17.00;10.30;;;;;;;3.06;63.40;100369.19;5165785;27;20062;-82
2021/01/27 05:50:22;;;;;;;15.32;9.38;;;;;;;3.05;63.83;100372.66;5245813;27;20705;-82
2021/01/27 05:52:48;;;;;;;14.15;9.77;;;;;;;3.13;62.85;100368.53;5253185;27;20113;-83
2021/01/27 05:55:15;;;;;;;12.95;8.88;;;;;;;3.31;62.36;100376.72;5254794;27;20136;-82
2021/01/27 05:57:42;;;;;;;14.40;8.65;;;;;;;3.48;61.38;100379.72;5254802;27;20117;-83
2021/01/27 06:00:09;;;;;;;13.27;8.30;;;;;;;3.63;60.74;100377.47;5235758;27;20130;-83
2021/01/27 06:16:13;;;;;;;11.95;8.40;;;;;;;3.73;59.82;100404.50;5207790;27;20070;-82
2021/01/27 09:49:08;;;;;;;6.72;4.95;;;;;;;10.90;43.05;100429.31;5282574;26;20044;31
2021/01/27 09:52:21;;;;;;;13.25;8.15;;;;;;;11.09;41.63;100433.59;5314519;27;20064;-81
2021/01/27 09:55:18;;;;;;;9.55;5.05;;;;;;;10.96;41.80;100433.66;5298932;27;20415;-81
2021/01/27 10:02:36;;;;;;;;;;;;;;;;;;;;;
2021/01/27 10:06:05;;;;;;;11.75;6.62;;;;;;;9.86;41.98;100435.03;5250091;27;20196;-81
2021/01/27 10:12:53;;;;;;;11.18;6.32;;;;;;;9.45;44.47;100434.19;5292959;27;20053;-82
2021/01/27 10:16:14;;;;;;;6.97;5.25;;;;;;;9.52;44.53;100441.19;5276040;27;20063;-80
2021/01/27 10:19:20;;;;;;;8.48;4.93;;;;;;;9.15;43.54;100435.09;5159035;27;20102;-83
2021/01/27 10:22:09;;;;;;;6.93;4.65;;;;;;;8.76;44.16;100435.88;5149291;27;20085;-83
2021/01/27 10:25:03;;;;;;;7.80;4.32;;;;;;;8.48;45.42;100435.81;5148392;27;20073;-82
2021/01/27 10:28:13;;;;;;;6.62;4.65;;;;;;;7.57;45.88;100447.50;5164326;27;20070;-81
2021/01/27 10:31:48;;;;;;;;;;;;;;;8.16;44.62;100444.37;5203587;27;20071;-86
2021/01/27 10:34:47;;;;;;;7.62;5.10;;;;;;;7.42;45.82;100442.19;5190795;27;20037;-80
2021/01/27 10:41:09;;;;;;;9.23;5.30;;;;;;;7.07;46.84;100439.28;5244138;27;20081;-81
2021/01/27 10:46:40;;;;;;;9.25;5.37;;;;;;;6.81;48.84;100440.75;5245630;27;20074;-81
2021/01/27 11:01:26;;;;;;;11.50;7.25;;;;;;;7.17;47.77;100435.88;5236639;27;20074;-84
2021/01/27 11:14:36;;;;;;;8.18;5.37;;;;;;;6.76;49.09;100421.53;5214568;27;20121;-81
2021/01/27 11:17:18;;;;;;;7.00;4.32;;;;;;;6.89;47.99;100417.34;5206031;27;20488;-85
2021/01/27 11:19:54;;;;;;;10.65;6.85;;;;;;;6.66;48.99;100419.72;5208438;27;20789;-84
2021/01/27 11:22:27;;;;;;;9.68;5.78;;;;;;;6.55;48.96;100411.75;5191862;27;20076;-80
2021/01/27 11:24:54;;;;;;;13.77;7.57;;;;;;;6.50;49.21;100416.06;5208615;27;20138;-80
2021/01/27 11:27:22;;;;;;;7.03;5.03;;;;;;;6.81;49.92;100409.41;5208623;27;20896;-83
2021/01/27 11:32:31;;;;;;;6.05;4.05;;;;;;;4.98;53.79;100419.09;5189712;27;20141;-81
2021/01/27 11:42:30;;;;;;;9.30;4.22;;;;;;;5.42;55.67;100421.56;5257653;27;20069;-83
2021/01/27 11:45:25;;;;;;;11.32;4.85;;;;;;;5.47;54.69;100408.59;5278657;27;20419;-81
2021/01/27 15:25:12;;;;;;;15.07;7.85;;;;;;;6.22;46.08;100315.72;5260281;27;20099;-83
2021/01/27 15:27:41;;;;;;;9.20;6.13;;;;;;;6.56;45.10;100321.28;5259420;27;20058;-83
2021/01/27 15:30:18;;;;;;;20.35;13.23;;;;;;;6.24;45.64;100318.37;5260232;27;20407;-82
2021/01/27 15:32:45;;;;;;;17.83;11.73;;;;;;;6.35;45.40;100321.94;5257783;27;20054;-83
2021/01/27 15:35:12;;;;;;;20.40;14.27;;;;;;;6.31;45.71;100326.25;5260307;27;20089;-82
2021/01/27 15:38:06;;;;;;;19.12;13.05;;;;;;;6.56;45.12;100330.00;5258856;27;20076;-81
2021/01/27 15:40:37;;;;;;;58.95;30.77;;;;;;;6.25;45.51;100323.59;5257789;27;20069;-83
2021/01/27 15:43:05;;;;;;;57.00;31.55;;;;;;;6.27;45.47;100323.62;5257984;27;20108;-82
2021/01/27 15:45:32;;;;;;;31.33;20.30;;;;;;;5.78;46.70;100329.09;5258881;27;20446;-83
2021/01/27 15:47:58;;;;;;;26.95;18.35;;;;;;;6.35;45.50;100321.94;5258211;27;20065;-81
2021/01/27 15:50:26;;;;;;;29.17;17.30;;;;;;;6.50;45.25;100324.72;5258084;27;20054;-83
2021/01/27 15:52:54;;;;;;;28.58;17.98;;;;;;;6.42;45.62;100323.75;5258210;27;20033;-84
2021/01/27 15:55:22;;;;;;;39.88;23.48;;;;;;;6.51;45.96;100328.19;5258676;27;20030;-82
2021/01/27 15:57:50;;;;;;;31.03;18.43;;;;;;;6.66;45.76;100327.47;5257365;27;20053;-81
2021/01/27 16:00:17;;;;;;;29.48;18.52;;;;;;;6.83;45.54;100331.09;5256609;27;20057;-82
2021/01/27 16:02:44;;;;;;;29.00;16.65;;;;;;;7.02;44.86;100324.28;5257451;27;20446;-82
2021/01/27 16:05:13;;;;;;;30.55;18.48;;;;;;;7.15;44.27;100317.41;5258036;27;20063;-82
2021/01/27 16:07:41;;;;;;;34.88;20.37;;;;;;;7.24;44.02;100320.94;5258728;27;20074;-83
2021/01/27 16:10:18;;;;;;;38.83;22.58;;;;;;;7.04;43.88;100320.81;5258204;27;20054;-84
2021/01/27 16:12:44;;;;;;;42.22;26.55;;;;;;;6.91;45.25;100331.13;5258168;27;20092;-82
2021/01/27 16:15:13;;;;;;;44.25;22.55;;;;;;;7.03;44.67;100333.88;5257414;27;20076;-83
2021/01/27 16:17:40;;;;;;;42.83;25.15;;;;;;;6.91;45.56;100325.91;5256956;27;20072;-83
2021/01/27 16:20:08;;;;;;;28.90;14.18;;;;;;;7.10;44.57;100330.44;5253043;27;20042;-82
2021/01/27 16:22:35;;;;;;;26.65;14.63;;;;;;;7.04;44.61;100331.25;5250208;27;20649;-83
2021/01/27 16:25:04;;;;;;;26.67;15.75;;;;;;;6.88;44.89;100331.97;5257337;27;20064;-83
2021/01/27 16:27:30;;;;;;;22.60;12.37;;;;;;;6.65;45.67;100336.13;5256800;27;20070;-82
2021/01/27 16:29:57;;;;;;;22.42;13.65;;;;;;;6.72;45.47;100328.37;5255514;27;20057;-83
2021/01/27 16:32:23;;;;;;;36.97;18.70;;;;;;;6.69;45.52;100327.50;5257128;27;20042;-82
2021/01/27 16:34:50;;;;;;;53.40;30.80;;;;;;;6.40;46.45;100328.09;5257624;27;20062;-81
2021/01/27 16:37:16;;;;;;;51.08;29.20;;;;;;;6.31;46.33;100323.66;5257205;27;20431;-82
2021/01/27 16:39:48;;;;;;;59.80;37.08;;;;;;;6.29;46.65;100324.47;5257535;27;20062;-82
2021/01/27 16:42:21;;;;;;;68.32;40.55;;;;;;;6.35;46.84;100322.84;5257578;27;20416;-82
2021/01/27 16:44:49;;;;;;;63.30;40.28;;;;;;;6.39;46.59;100321.13;5256871;27;20072;-83
2021/01/27 16:47:19;;;;;;;49.47;30.40;;;;;;;6.31;46.96;100323.66;5255871;27;20058;-82
2021/01/27 16:49:46;;;;;;;37.17;21.70;;;;;;;6.36;46.84;100334.12;5256478;27;20420;-84
2021/01/27 16:52:13;;;;;;;37.67;20.33;;;;;;;6.23;47.33;100322.69;5257735;27;20062;-82
2021/01/27 16:54:40;;;;;;;30.40;15.75;;;;;;;6.25;47.24;100320.97;5256830;27;20080;-81
2021/01/27 16:57:08;;;;;;;30.10;18.40;;;;;;;6.24;47.18;100327.06;5257378;27;20073;-82
2021/01/27 16:59:35;;;;;;;32.20;21.27;;;;;;;6.29;46.93;100321.87;5245361;27;20119;-82
2021/01/27 17:02:02;;;;;;;28.50;17.35;;;;;;;6.25;47.17;100326.19;5237691;27;20121;-82
2021/01/27 17:04:29;;;;;;;32.83;14.20;;;;;;;6.09;47.43;100325.16;5257968;27;20082;-82
2021/01/27 17:06:58;;;;;;;29.10;13.93;;;;;;;6.15;47.08;100324.34;5257197;27;20068;-83
2021/01/27 17:09:25;;;;;;;22.58;12.32;;;;;;;6.19;46.92;100328.72;5257384;27;20097;-82
2021/01/27 17:11:51;;;;;;;49.85;28.55;;;;;;;6.25;46.67;100323.59;5258233;27;20077;-81
2021/01/27 17:14:19;;;;;;;58.10;31.75;;;;;;;6.05;47.00;100328.56;5256891;27;20078;-82
2021/01/27 17:16:46;;;;;;;54.08;28.25;;;;;;;5.70;47.79;100325.50;5257592;27;20049;-83
2021/01/27 17:19:15;;;;;;;53.83;27.95;;;;;;;5.51;48.27;100329.63;5257007;27;20058;-82
2021/01/27 17:21:43;;;;;;;18.25;11.90;;;;;;;5.30;49.05;100324.97;5257513;27;20077;-84
2021/01/27 17:24:14;;;;;;;13.55;7.75;;;;;;;5.20;49.11;100323.09;5238353;27;20045;-82
2021/01/27 17:26:42;;;;;;;26.48;16.62;;;;;;;5.07;49.02;100318.56;5238366;27;20054;-82
2021/01/27 17:29:09;;;;;;;26.30;13.27;;;;;;;5.30;48.32;100327.59;5256267;27;20416;-82
2021/01/27 17:31:36;;;;;;;24.77;13.48;;;;;;;5.28;48.15;100321.47;5257409;27;20058;-82
2021/01/27 17:34:05;;;;;;;21.05;14.45;;;;;;;5.32;48.08;100327.59;5257140;27;20062;-83
2021/01/27 17:36:32;;;;;;;31.27;16.87;;;;;;;5.42;47.91;100319.06;5256544;27;20083;-81
2021/01/27 17:39:00;;;;;;;25.33;14.25;;;;;;;5.45;48.31;100316.50;5258435;27;20046;-82
2021/01/27 17:41:27;;;;;;;23.90;14.40;;;;;;;4.69;50.59;100318.81;5258626;27;20054;-81
2021/01/27 17:43:54;;;;;;;20.77;11.70;;;;;;;4.63;50.19;100311.78;5260182;27;20146;-82
2021/01/27 17:46:22;;;;;;;15.75;9.30;;;;;;;4.60;50.17;100311.72;5259059;27;20049;-82
2021/01/27 17:48:49;;;;;;;14.98;8.75;;;;;;;4.54;50.33;100306.44;5258865;27;20070;-81
2021/01/27 17:51:16;;;;;;;18.20;11.57;;;;;;;4.69;49.96;100314.47;5256578;27;20075;-82
2021/01/27 17:53:44;;;;;;;21.00;12.60;;;;;;;4.80;49.47;100311.19;5258817;27;20321;-83
2021/01/27 17:56:11;;;;;;;23.02;16.37;;;;;;;4.72;49.39;100298.91;5256816;27;20057;-82
2021/01/27 17:58:39;;;;;;;22.58;14.13;;;;;;;4.63;49.60;100309.19;5258960;27;20062;-82
2021/01/27 18:01:07;;;;;;;22.70;13.45;;;;;;;4.60;49.70;100310.84;5258963;27;20817;-83
2021/01/27 18:03:35;;;;;;;16.95;10.60;;;;;;;4.77;49.22;100305.09;5258097;27;20794;-82
2021/01/27 18:06:02;;;;;;;20.00;11.60;;;;;;;4.75;49.67;100311.97;5258423;27;20062;-82
2021/01/27 18:08:29;;;;;;;16.50;11.15;;;;;;;4.48;50.16;100308.94;5257977;27;20057;-81
2021/01/27 18:10:55;;;;;;;20.02;13.52;;;;;;;4.55;49.86;100310.75;5260180;27;20076;-81
2021/01/27 18:13:27;;;;;;;20.90;11.43;;;;;;;4.49;49.85;100308.94;5257646;27;20062;-82
2021/01/27 18:15:54;;;;;;;20.73;12.40;;;;;;;4.49;49.68;100306.34;5259077;27;20065;-83
2021/01/27 18:18:22;;;;;;;17.35;11.32;;;;;;;4.43;49.62;100306.22;5259948;27;20025;-83
2021/01/27 18:20:49;;;;;;;17.62;11.12;;;;;;;4.38;49.80;100307.87;5260117;27;20058;-82
2021/01/27 18:23:19;;;;;;;19.70;12.35;;;;;;;4.41;50.01;100300.16;5287240;27;20076;-83
2021/01/27 18:29:24;;;;;;;26.12;14.32;;;;;;;4.26;50.84;100295.50;5289621;27;20053;-82
2021/01/27 18:31:57;;;;;;;19.80;12.37;;;;;;;3.84;52.59;100298.19;5303633;27;20035;-83
2021/01/27 18:34:27;;;;;;;23.92;14.02;;;;;;;2.91;56.03;100308.31;5285236;27;20124;-83
2021/01/27 18:36:54;;;;;;;16.00;11.32;;;;;;;2.79;58.23;100307.12;5283802;27;20466;-83
2021/01/27 18:39:28;;;;;;;16.15;10.95;;;;;;;3.24;55.99;100307.34;5302472;27;20438;-83
2021/01/27 18:41:55;;;;;;;19.60;11.48;;;;;;;3.19;54.88;100302.03;5284330;27;20415;-82
2021/01/27 18:44:25;;;;;;;19.15;10.50;;;;;;;3.28;54.18;100305.69;5303456;27;20056;-81
2021/01/27 18:52:01;;;;;;;14.18;9.68;;;;;;;3.43;53.35;100306.00;5282227;27;20058;-81
2021/01/27 18:54:28;;;;;;;18.83;8.98;;;;;;;3.36;53.35;100309.34;5279713;27;20072;-82
2021/01/27 18:56:55;;;;;;;16.75;11.07;;;;;;;3.30;53.23;100310.06;5280675;27;20560;-81
2021/01/27 18:59:21;;;;;;;30.12;15.15;;;;;;;3.49;52.67;100305.25;5279940;27;20050;-84
2021/01/27 19:01:48;;;;;;;20.73;13.88;;;;;;;3.59;52.29;100300.31;5261482;27;20116;-83
2021/01/27 19:04:19;;;;;;;16.73;10.55;;;;;;;2.70;55.62;100297.41;5281581;27;20062;-82
2021/01/27 19:06:59;;;;;;;19.55;12.60;;;;;;;3.01;54.97;100290.38;5280223;27;20092;-84
2021/01/27 19:09:26;;;;;;;20.60;11.50;;;;;;;3.03;54.69;100297.34;5280586;27;20029;-82
2021/01/27 19:11:53;;;;;;;19.45;11.32;;;;;;;3.08;54.24;100297.44;5260775;27;20683;-84
2021/01/27 19:14:20;;;;;;;18.08;10.95;;;;;;;2.70;56.63;100294.81;5281041;27;20086;-82
2021/01/27 19:16:47;;;;;;;22.42;15.23;;;;;;;3.00;55.56;100293.78;5281410;27;20911;-84
2021/01/27 19:19:15;;;;;;;24.50;17.67;;;;;;;3.03;55.76;100284.37;5276248;27;20153;-82
2021/01/27 19:21:42;;;;;;;48.22;36.97;;;;;;;2.79;56.77;100297.63;5302730;27;20072;-83
2021/01/27 19:24:13;;;;;;;53.83;38.22;;;;;;;2.85;56.65;100287.38;5303143;27;20063;-82
2021/01/27 19:26:39;;;;;;;41.35;27.00;;;;;;;2.75;56.24;100298.41;5301784;27;20437;-82
2021/01/27 19:29:06;;;;;;;30.25;18.87;;;;;;;2.60;55.37;100293.72;5303120;27;20045;-83
2021/01/27 19:31:33;;;;;;;31.73;20.42;;;;;;;2.61;55.35;100299.78;5283510;27;20030;-84
2021/01/27 19:34:00;;;;;;;23.87;15.32;;;;;;;2.54;55.25;100290.97;5302403;27;20114;-84
2021/01/27 19:36:28;;;;;;;32.63;19.05;;;;;;;2.61;55.61;100292.88;5301233;27;20057;-83
2021/01/27 19:38:55;;;;;;;25.95;15.95;;;;;;;2.55;56.38;100299.62;5299449;27;20334;-82
2021/01/27 19:41:23;;;;;;;27.80;16.15;;;;;;;2.64;56.45;100297.25;5300200;27;20439;-83
2021/01/27 19:43:51;;;;;;;23.98;14.90;;;;;;;2.52;57.09;100299.56;5282691;27;20069;-84
2021/01/27 19:46:19;;;;;;;19.77;13.98;;;;;;;2.58;56.86;100305.75;5302055;27;20063;-84
2021/01/27 19:48:46;;;;;;;22.35;13.50;;;;;;;2.60;56.30;100303.22;5283094;27;20053;-83
2021/01/27 19:51:13;;;;;;;16.65;11.48;;;;;;;2.49;55.69;100306.41;5304451;27;20076;-84
2021/01/27 19:53:42;;;;;;;23.90;12.37;;;;;;;2.66;54.63;100293.00;5304429;27;20053;-83
2021/01/27 19:56:09;;;;;;;21.62;12.48;;;;;;;2.43;54.57;100295.88;5302516;27;20021;-82
2021/01/27 19:58:38;;;;;;;18.52;12.63;;;;;;;2.51;54.44;100298.69;5303112;27;20065;-84
2021/01/27 20:01:06;;;;;;;20.77;12.60;;;;;;;2.71;53.84;100296.59;5302876;27;20071;-82
2021/01/27 20:03:32;;;;;;;16.90;10.82;;;;;;;2.60;53.78;100303.22;5302632;27;20071;-84
2021/01/27 20:05:59;;;;;;;22.52;13.48;;;;;;;2.63;53.54;100311.09;5302050;27;20068;-83
2021/01/27 20:08:26;;;;;;;22.42;11.15;;;;;;;2.71;53.84;100309.56;5303034;27;20030;-82
2021/01/27 20:10:57;;;;;;;18.20;11.25;;;;;;;2.69;53.98;100308.63;5284475;27;20069;-83
2021/01/27 20:13:28;;;;;;;16.40;10.83;;;;;;;2.55;54.73;100320.38;5303938;27;20037;-82
2021/01/27 20:15:56;;;;;;;16.73;10.43;;;;;;;2.47;54.69;100317.56;5301961;27;20063;-82
2021/01/27 20:18:28;;;;;;;17.35;11.12;;;;;;;2.44;54.48;100312.31;5281266;27;20064;-82
2021/01/27 20:20:56;;;;;;;18.95;11.65;;;;;;;2.34;54.10;100316.41;5294618;27;20092;-83
2021/01/27 20:23:25;;;;;;;18.80;13.37;;;;;;;2.30;54.74;100313.69;5280104;27;20397;-82
2021/01/27 20:25:54;;;;;;;23.38;14.73;;;;;;;2.37;54.30;100313.88;5280770;27;20481;-84
2021/01/27 20:28:26;;;;;;;24.67;15.27;;;;;;;2.39;54.62;100311.34;5280107;27;20053;-82
2021/01/27 20:30:55;;;;;;;19.55;12.70;;;;;;;2.38;54.02;100307.87;5279524;27;21000;-83
2021/01/27 20:33:24;;;;;;;19.00;13.05;;;;;;;2.10;54.91;100306.25;5280536;27;20065;-83
2021/01/27 20:35:54;;;;;;;20.23;12.43;;;;;;;1.93;55.74;100316.16;5281070;27;20117;-83
2021/01/27 20:38:24;;;;;;;29.83;17.25;;;;;;;2.00;54.56;100312.00;5279021;27;20070;-82
2021/01/27 20:40:52;;;;;;;32.90;18.85;;;;;;;1.97;54.09;100307.66;5280534;27;20065;-82
2021/01/27 20:43:19;;;;;;;30.95;19.75;;;;;;;1.96;54.81;100305.88;5281221;27;20493;-82
2021/01/27 20:45:48;;;;;;;32.05;20.48;;;;;;;1.86;54.85;100306.47;5281724;27;20033;-84
2021/01/27 20:48:16;;;;;;;37.40;20.00;;;;;;;1.97;54.51;100315.44;5278389;27;20069;-83
2021/01/27 20:50:46;;;;;;;48.97;31.20;;;;;;;2.06;53.97;100317.41;5280881;27;20057;-83
2021/01/27 20:53:31;;;;;;;39.67;24.17;;;;;;;1.83;53.62;100327.12;5280912;27;20070;-84
2021/01/27 20:55:58;;;;;;;33.42;20.23;;;;;;;1.79;53.22;100326.16;5279684;27;20124;-85
2021/01/27 20:58:26;;;;;;;52.78;31.20;;;;;;;1.74;53.45;100319.09;5280036;27;20412;-82
2021/01/27 21:00:53;;;;;;;52.38;31.92;;;;;;;1.85;53.04;100312.47;5281352;27;20062;-82
2021/01/27 21:03:22;;;;;;;50.67;29.42;;;;;;;1.64;54.89;100317.06;5280338;27;20065;-84
2021/01/27 21:05:50;;;;;;;47.83;26.50;;;;;;;0.94;57.93;100324.44;5282596;27;20072;-82
2021/01/27 21:08:17;;;;;;;44.65;28.77;;;;;;;1.08;58.09;100324.87;5282187;27;20056;-81
2021/01/27 21:10:45;;;;;;;42.25;23.30;;;;;;;1.38;57.33;100322.34;5282070;27;20053;-84
2021/01/27 21:13:13;;;;;;;37.08;23.90;;;;;;;1.16;57.11;100317.34;5282143;27;20076;-83
2021/01/27 21:15:43;;;;;;;38.88;22.02;;;;;;;1.30;56.02;100319.53;5280234;27;20092;-82
2021/01/27 21:18:12;;;;;;;40.80;24.63;;;;;;;1.44;55.24;100317.38;5281157;27;20076;-83
2021/01/27 21:20:40;;;;;;;38.35;23.58;;;;;;;1.53;55.73;100322.81;5281104;27;20061;-81
2021/01/27 21:23:10;;;;;;;32.88;18.10;;;;;;;1.41;56.12;100314.66;5282386;27;20069;-85
2021/01/27 21:25:37;;;;;;;28.62;15.82;;;;;;;1.55;55.83;100312.47;5280567;27;20116;-84
2021/01/27 21:28:05;;;;;;;22.90;12.35;;;;;;;1.23;57.64;100309.81;5278516;27;20045;-82
2021/01/27 21:30:35;;;;;;;22.83;14.10;;;;;;;0.93;59.33;100321.81;5279917;27;20461;-83
2021/01/27 21:33:12;;;;;;;22.50;14.25;;;;;;;1.01;59.33;100321.22;5279574;27;20133;-83
2021/01/27 21:35:41;;;;;;;23.95;13.90;;;;;;;1.20;58.65;100319.19;5280912;27;20108;-82
2021/01/27 21:38:07;;;;;;;23.60;14.30;;;;;;;1.07;58.61;100317.94;5280399;27;20704;-83
2021/01/27 21:40:34;;;;;;;19.87;13.30;;;;;;;1.11;57.59;100318.06;5282322;27;20117;-84
2021/01/27 21:43:01;;;;;;;22.45;14.35;;;;;;;1.08;57.23;100317.09;5279852;27;20699;-83
2021/01/27 21:45:33;;;;;;;25.10;15.32;;;;;;;1.12;56.81;100318.97;5281261;27;20422;-84
2021/01/27 21:48:02;;;;;;;26.90;15.73;;;;;;;0.97;56.19;100319.38;5279979;27;20065;-82
2021/01/27 21:50:29;;;;;;;20.27;12.77;;;;;;;1.16;55.54;100327.72;5280332;27;20069;-84
2021/01/27 21:52:55;;;;;;;20.45;13.60;;;;;;;1.08;55.31;100328.34;5278573;27;20084;-82
2021/01/27 21:55:22;;;;;;;26.80;17.40;;;;;;;1.06;55.19;100332.59;5279526;27;20038;-83
2021/01/27 21:57:48;;;;;;;54.20;30.98;;;;;;;1.12;54.83;100330.22;5279312;27;20119;-83
2021/01/27 22:00:19;;;;;;;29.92;19.33;;;;;;;0.98;57.05;100323.72;5279634;27;20042;-82
2021/01/27 22:02:48;;;;;;;25.70;16.75;;;;;;;0.89;57.50;100326.00;5279097;27;20061;-83
2021/01/27 22:05:16;;;;;;;38.85;21.65;;;;;;;1.05;56.73;100315.31;5280573;27;20029;-83
2021/01/27 22:07:42;;;;;;;27.87;16.00;;;;;;;1.02;56.85;100322.09;5280168;27;20355;-83
2021/01/27 22:10:10;;;;;;;22.90;13.62;;;;;;;1.15;57.20;100319.06;5260689;27;20072;-82
2021/01/27 22:12:36;;;;;;;29.70;15.07;;;;;;;1.11;57.98;100312.91;5279676;27;20064;-82
2021/01/27 22:15:05;;;;;;;21.60;13.93;;;;;;;0.93;59.38;100324.41;5278670;27;20050;-85
2021/01/27 22:17:31;;;;;;;21.42;12.80;;;;;;;0.88;59.48;100314.78;5279838;27;20058;-81
2021/01/27 22:19:58;;;;;;;18.67;12.98;;;;;;;0.81;59.22;100314.53;5280522;27;20995;-83
2021/01/27 22:22:24;;;;;;;23.40;13.25;;;;;;;0.86;58.32;100319.03;5280656;27;20077;-82
2021/01/27 22:24:50;;;;;;;22.87;14.70;;;;;;;0.99;57.27;100311.66;5260817;27;20057;-81
2021/01/27 22:27:17;;;;;;;23.95;13.95;;;;;;;0.96;56.58;100309.84;5279395;27;20057;-82
2021/01/27 22:29:43;;;;;;;21.90;14.00;;;;;;;1.05;55.93;100312.72;5280309;27;20073;-81
2021/01/27 22:32:10;;;;;;;22.20;14.00;;;;;;;0.62;56.80;100315.66;5260776;27;20127;-83
2021/01/27 22:34:36;;;;;;;21.00;13.27;;;;;;;0.78;56.53;100319.63;5280706;27;20049;-83
2021/01/27 22:37:03;;;;;;;19.55;12.55;;;;;;;0.75;55.96;100315.22;5280623;27;20337;-82
2021/01/27 22:39:29;;;;;;;30.95;20.45;;;;;;;0.87;55.25;100317.31;5280650;27;20058;-82
2021/01/27 22:41:55;;;;;;;31.50;20.48;;;;;;;0.79;56.00;100317.06;5280036;27;20572;-82
2021/01/27 22:44:22;;;;;;;87.40;61.08;;;;;;;0.94;55.66;100313.22;5279618;27;20994;-82
2021/01/27 22:46:48;;;;;;;36.55;23.55;;;;;;;0.87;55.32;100317.31;5278969;27;20087;-83
2021/01/27 22:50:18;;;;;;;59.97;34.92;;;;;;;0.82;56.33;100308.53;5261254;27;20061;-84
2021/01/27 22:52:46;;;;;;;32.85;19.92;;;;;;;0.79;56.35;100311.00;5234202;27;20399;-86
2021/01/27 22:55:13;;;;;;;28.80;18.40;;;;;;;0.83;55.97;100313.75;5281105;27;20053;-82
2021/01/27 22:57:40;;;;;;;31.87;19.00;;;;;;;0.84;55.73;100312.06;5279620;27;20022;-83
2021/01/27 23:00:27;;;;;;;23.80;16.67;;;;;;;0.53;57.02;100311.06;5281608;27;20072;-83
2021/01/27 23:02:56;;;;;;;28.92;18.95;;;;;;;0.30;57.62;100317.16;5280684;27;20535;-82
2021/01/27 23:05:29;;;;;;;28.62;18.25;;;;;;;0.13;58.29;100309.69;5279781;27;20074;-82
2021/01/27 23:07:56;;;;;;;34.33;20.80;;;;;;;0.21;58.33;100307.41;5278847;27;20081;-81
2021/01/27 23:10:25;;;;;;;32.20;20.15;;;;;;;0.31;58.02;100308.56;5278555;27;20133;-84
2021/01/27 23:12:52;;;;;;;26.00;17.05;;;;;;;0.52;57.70;100301.53;5278636;27;20065;-82
2021/01/27 23:15:39;;;;;;;30.55;17.35;;;;;;;0.44;57.99;100300.38;5280294;27;20305;-82
2021/01/27 23:18:08;;;;;;;27.25;16.35;;;;;;;0.51;57.28;100297.19;5281073;27;20104;-82
2021/01/27 23:20:36;;;;;;;27.20;16.30;;;;;;;0.45;57.47;100291.84;5270000;27;20740;-84
2021/01/27 23:23:15;;;;;;;27.25;15.07;;;;;;;0.61;56.87;100296.66;5280276;27;20061;-83
2021/01/27 23:28:20;;;;;;;19.40;13.15;;;;;;;0.58;56.73;100299.16;5290950;27;20136;-85
2021/01/27 23:31:12;;;;;;;28.75;17.48;;;;;;;0.66;56.36;100291.66;5280980;27;20030;-82
2021/01/27 23:33:40;;;;;;;29.37;18.85;;;;;;;0.48;56.47;100297.09;5279153;27;20033;-81
2021/01/27 23:36:07;;;;;;;24.10;15.88;;;;;;;0.52;56.53;100298.94;5281263;27;20053;-84
2021/01/27 23:38:33;;;;;;;25.95;16.65;;;;;;;0.44;56.41;100290.97;5280445;27;20072;-83
2021/01/27 23:41:00;;;;;;;27.30;17.25;;;;;;;0.60;55.90;100300.09;5280174;27;20367;-83
2021/01/27 23:43:27;;;;;;;27.23;16.35;;;;;;;0.61;55.72;100298.37;5280591;27;20921;-83
2021/01/27 23:45:53;;;;;;;28.25;17.25;;;;;;;0.42;55.65;100295.19;5281092;27;20053;-83
2021/01/27 23:48:34;;;;;;;23.08;14.07;;;;;;;0.43;55.07;100286.59;5279556;27;20060;-83
2021/01/27 23:51:25;;;;;;;26.65;15.77;;;;;;;0.46;55.57;100278.06;5280826;27;20443;-83
2021/01/27 23:53:51;;;;;;;29.00;16.27;;;;;;;0.49;56.13;100280.75;5267193;27;20065;-83
2021/01/27 23:56:18;;;;;;;28.05;16.65;;;;;;;0.39;56.81;100283.88;5280161;27;20057;-83
2021/01/27 23:58:44;;;;;;;25.05;15.65;;;;;;;0.28;56.98;100274.87;5280977;27;20064;-82
